sensor_id;sensor_type;location;lat;lon;timestamp;pressure;altitude;pressure_sealevel;temperature;humidity
75942;BME280;64622;46.220;19.878;2022-12-29T00:00:14;101378.88;;;-1.77;100.00
75942;BME280;64622;46.220;19.878;2022-12-29T00:02:41;101374.34;;;-1.74;100.00
75942;BME280;64622;46.220;19.878;2022-12-29T00:05:08;101366.81;;;-1.83;100.00
75942;BME280;64622;46.220;19.878;2022-12-29T00:07:34;101384.03;;;-1.76;100.00
75942;BME280;64622;46.220;19.878;2022-12-29T00:10:02;101373.34;;;-1.70;100.00
75942;BME280;64622;46.220;19.878;2022-12-29T00:12:29;101371.97;;;-1.80;100.00
75942;BME280;64622;46.220;19.878;2022-12-29T00:15:16;101379.59;;;-1.74;100.00
75942;BME280;64622;46.220;19.878;2022-12-29T00:18:01;101368.38;;;-1.55;100.00
75942;BME280;64622;46.220;19.878;2022-12-29T00:20:28;101378.06;;;-1.34;100.00
75942;BME280;64622;46.220;19.878;2022-12-29T00:23:13;101369.16;;;-1.30;100.00
75942;BME280;64622;46.220;19.878;2022-12-29T00:26:03;101374.94;;;-1.20;100.00
75942;BME280;64622;46.220;19.878;2022-12-29T00:28:50;101362.03;;;-1.05;100.00
75942;BME280;64622;46.220;19.878;2022-12-29T00:31:35;101368.94;;;-1.02;100.00
75942;BME280;64622;46.220;19.878;2022-12-29T00:34:20;101353.44;;;-1.08;100.00
75942;BME280;64622;46.220;19.878;2022-12-29T00:37:06;101347.69;;;-0.96;100.00
75942;BME280;64622;46.220;19.878;2022-12-29T00:39:33;101354.53;;;-0.92;100.00
75942;BME280;64622;46.220;19.878;2022-12-29T00:42:19;101354.34;;;-0.88;100.00
75942;BME280;64622;46.220;19.878;2022-12-29T00:45:04;101360.59;;;-0.90;99.72
75942;BME280;64622;46.220;19.878;2022-12-29T00:47:31;101358.84;;;-0.91;100.00
75942;BME280;64622;46.220;19.878;2022-12-29T00:49:58;101354.03;;;-1.02;100.00
75942;BME280;64622;46.220;19.878;2022-12-29T00:52:24;101364.81;;;-1.08;100.00
75942;BME280;64622;46.220;19.878;2022-12-29T00:54:51;101351.97;;;-1.15;100.00
75942;BME280;64622;46.220;19.878;2022-12-29T00:57:18;101356.31;;;-1.14;100.00
75942;BME280;64622;46.220;19.878;2022-12-29T00:59:44;101376.19;;;-1.09;100.00
75942;BME280;64622;46.220;19.878;2022-12-29T01:02:11;101373.81;;;-1.15;100.00
75942;BME280;64622;46.220;19.878;2022-12-29T01:04:38;101386.41;;;-1.23;100.00
75942;BME280;64622;46.220;19.878;2022-12-29T01:07:04;101373.66;;;-1.33;100.00
75942;BME280;64622;46.220;19.878;2022-12-29T01:09:31;101382.41;;;-1.33;100.00
75942;BME280;64622;46.220;19.878;2022-12-29T01:12:17;101376.59;;;-1.41;100.00
75942;BME280;64622;46.220;19.878;2022-12-29T01:15:04;101378.44;;;-1.42;100.00
75942;BME280;64622;46.220;19.878;2022-12-29T01:17:30;101376.00;;;-1.49;100.00
75942;BME280;64622;46.220;19.878;2022-12-29T01:19:57;101373.56;;;-1.53;100.00
75942;BME280;64622;46.220;19.878;2022-12-29T01:22:23;101370.88;;;-1.52;100.00
75942;BME280;64622;46.220;19.878;2022-12-29T01:24:50;101357.75;;;-1.52;100.00
75942;BME280;64622;46.220;19.878;2022-12-29T01:27:16;101360.50;;;-1.55;100.00
75942;BME280;64622;46.220;19.878;2022-12-29T01:29:43;101357.03;;;-1.55;100.00
75942;BME280;64622;46.220;19.878;2022-12-29T01:32:10;101357.88;;;-1.55;100.00
75942;BME280;64622;46.220;19.878;2022-12-29T01:34:38;101361.22;;;-1.51;100.00
75942;BME280;64622;46.220;19.878;2022-12-29T01:37:05;101358.16;;;-1.62;100.00
75942;BME280;64622;46.220;19.878;2022-12-29T01:39:32;101350.19;;;-1.59;100.00
75942;BME280;64622;46.220;19.878;2022-12-29T01:41:58;101351.78;;;-1.55;100.00
75942;BME280;64622;46.220;19.878;2022-12-29T01:44:55;101335.25;;;-1.59;100.00
75942;BME280;64622;46.220;19.878;2022-12-29T01:50:11;101342.84;;;-1.51;100.00
75942;BME280;64622;46.220;19.878;2022-12-29T01:52:43;101333.56;;;-1.60;100.00
75942;BME280;64622;46.220;19.878;2022-12-29T01:55:12;101330.72;;;-1.77;100.00
75942;BME280;64622;46.220;19.878;2022-12-29T01:57:42;101323.97;;;-1.61;100.00
75942;BME280;64622;46.220;19.878;2022-12-29T02:00:12;101328.37;;;-1.61;100.00
75942;BME280;64622;46.220;19.878;2022-12-29T02:02:44;101332.03;;;-1.65;100.00
75942;BME280;64622;46.220;19.878;2022-12-29T02:05:52;101335.06;;;-1.76;100.00
75942;BME280;64622;46.220;19.878;2022-12-29T02:08:24;101328.25;;;-1.81;100.00
75942;BME280;64622;46.220;19.878;2022-12-29T02:10:52;101326.69;;;-1.85;100.00
75942;BME280;64622;46.220;19.878;2022-12-29T02:13:26;101327.56;;;-1.86;100.00
75942;BME280;64622;46.220;19.878;2022-12-29T02:24:18;101319.09;;;-1.92;100.00
75942;BME280;64622;46.220;19.878;2022-12-29T02:30:27;101314.56;;;-1.89;100.00
75942;BME280;64622;46.220;19.878;2022-12-29T02:41:18;101307.69;;;-1.92;100.00
75942;BME280;64622;46.220;19.878;2022-12-29T02:51:42;101298.66;;;-1.85;100.00
75942;BME280;64622;46.220;19.878;2022-12-29T02:54:10;101295.75;;;-1.77;100.00
75942;BME280;64622;46.220;19.878;2022-12-29T02:56:56;101300.22;;;-1.79;100.00
75942;BME280;64622;46.220;19.878;2022-12-29T02:59:23;101297.59;;;-1.79;100.00
75942;BME280;64622;46.220;19.878;2022-12-29T03:02:13;101286.34;;;-1.83;100.00
75942;BME280;64622;46.220;19.878;2022-12-29T03:07:52;101310.81;;;-1.82;100.00
75942;BME280;64622;46.220;19.878;2022-12-29T03:21:41;101302.16;;;-1.84;100.00
75942;BME280;64622;46.220;19.878;2022-12-29T03:24:32;101287.44;;;-1.88;100.00
75942;BME280;64622;46.220;19.878;2022-12-29T03:27:03;101297.69;;;-1.82;100.00
75942;BME280;64622;46.220;19.878;2022-12-29T03:29:36;101284.34;;;-1.76;100.00
75942;BME280;64622;46.220;19.878;2022-12-29T03:32:07;101287.72;;;-1.73;100.00
75942;BME280;64622;46.220;19.878;2022-12-29T03:34:36;101281.66;;;-1.75;100.00
75942;BME280;64622;46.220;19.878;2022-12-29T03:37:20;101283.53;;;-1.78;100.00
75942;BME280;64622;46.220;19.878;2022-12-29T03:39:49;101287.78;;;-1.74;100.00
75942;BME280;64622;46.220;19.878;2022-12-29T03:42:19;101286.16;;;-1.78;100.00
75942;BME280;64622;46.220;19.878;2022-12-29T03:44:47;101274.81;;;-1.79;100.00
75942;BME280;64622;46.220;19.878;2022-12-29T03:47:14;101278.19;;;-1.75;100.00
75942;BME280;64622;46.220;19.878;2022-12-29T03:49:42;101279.09;;;-1.76;100.00
75942;BME280;64622;46.220;19.878;2022-12-29T03:52:09;101281.41;;;-1.69;100.00
75942;BME280;64622;46.220;19.878;2022-12-29T03:54:36;101278.06;;;-1.72;100.00
75942;BME280;64622;46.220;19.878;2022-12-29T03:57:03;101293.50;;;-1.65;100.00
75942;BME280;64622;46.220;19.878;2022-12-29T03:59:30;101292.72;;;-1.67;100.00
75942;BME280;64622;46.220;19.878;2022-12-29T04:01:57;101291.88;;;-1.67;100.00
75942;BME280;64622;46.220;19.878;2022-12-29T04:04:24;101295.34;;;-1.67;100.00
75942;BME280;64622;46.220;19.878;2022-12-29T04:06:50;101296.28;;;-1.67;100.00
75942;BME280;64622;46.220;19.878;2022-12-29T04:09:17;101298.75;;;-1.65;100.00
75942;BME280;64622;46.220;19.878;2022-12-29T04:11:45;101302.00;;;-1.58;100.00
75942;BME280;64622;46.220;19.878;2022-12-29T04:14:11;101297.25;;;-1.49;100.00
75942;BME280;64622;46.220;19.878;2022-12-29T04:16:38;101299.59;;;-1.41;100.00
75942;BME280;64622;46.220;19.878;2022-12-29T04:19:06;101289.62;;;-1.55;100.00
75942;BME280;64622;46.220;19.878;2022-12-29T04:21:34;101289.56;;;-1.53;100.00
75942;BME280;64622;46.220;19.878;2022-12-29T04:24:00;101295.69;;;-1.52;100.00
75942;BME280;64622;46.220;19.878;2022-12-29T04:26:28;101290.87;;;-1.65;100.00
75942;BME280;64622;46.220;19.878;2022-12-29T04:28:55;101288.56;;;-1.72;100.00
75942;BME280;64622;46.220;19.878;2022-12-29T04:31:21;101286.06;;;-1.75;100.00
75942;BME280;64622;46.220;19.878;2022-12-29T04:33:49;101299.19;;;-1.75;100.00
75942;BME280;64622;46.220;19.878;2022-12-29T04:36:16;101298.41;;;-1.79;100.00
75942;BME280;64622;46.220;19.878;2022-12-29T04:38:45;101297.22;;;-1.93;100.00
75942;BME280;64622;46.220;19.878;2022-12-29T04:41:11;101306.84;;;-1.94;100.00
75942;BME280;64622;46.220;19.878;2022-12-29T04:43:38;101290.38;;;-1.97;100.00
75942;BME280;64622;46.220;19.878;2022-12-29T04:46:06;101288.69;;;-1.98;100.00
75942;BME280;64622;46.220;19.878;2022-12-29T04:48:34;101287.91;;;-2.00;100.00
75942;BME280;64622;46.220;19.878;2022-12-29T04:51:02;101298.78;;;-1.87;100.00
75942;BME280;64622;46.220;19.878;2022-12-29T04:53:31;101283.38;;;-1.97;100.00
75942;BME280;64622;46.220;19.878;2022-12-29T04:55:59;101296.09;;;-1.86;100.00
75942;BME280;64622;46.220;19.878;2022-12-29T04:58:26;101287.75;;;-1.97;100.00
75942;BME280;64622;46.220;19.878;2022-12-29T05:00:53;101298.84;;;-1.89;100.00
75942;BME280;64622;46.220;19.878;2022-12-29T05:03:21;101293.06;;;-1.99;100.00
75942;BME280;64622;46.220;19.878;2022-12-29T05:05:49;101295.06;;;-1.82;100.00
75942;BME280;64622;46.220;19.878;2022-12-29T05:08:15;101293.19;;;-1.79;100.00
75942;BME280;64622;46.220;19.878;2022-12-29T05:10:44;101289.38;;;-1.70;100.00
75942;BME280;64622;46.220;19.878;2022-12-29T05:13:12;101297.84;;;-1.64;100.00
75942;BME280;64622;46.220;19.878;2022-12-29T05:15:39;101284.91;;;-1.68;100.00
75942;BME280;64622;46.220;19.878;2022-12-29T05:18:07;101294.50;;;-1.67;100.00
75942;BME280;64622;46.220;19.878;2022-12-29T05:20:33;101286.84;;;-1.73;100.00
75942;BME280;64622;46.220;19.878;2022-12-29T05:23:00;101287.87;;;-1.77;100.00
75942;BME280;64622;46.220;19.878;2022-12-29T05:25:27;101288.69;;;-1.75;100.00
75942;BME280;64622;46.220;19.878;2022-12-29T05:27:54;101294.81;;;-1.76;100.00
75942;BME280;64622;46.220;19.878;2022-12-29T05:30:21;101285.94;;;-1.72;100.00
75942;BME280;64622;46.220;19.878;2022-12-29T05:32:48;101292.06;;;-1.72;100.00
75942;BME280;64622;46.220;19.878;2022-12-29T05:35:15;101277.50;;;-1.80;100.00
75942;BME280;64622;46.220;19.878;2022-12-29T05:37:42;101271.59;;;-1.85;100.00
75942;BME280;64622;46.220;19.878;2022-12-29T05:40:12;101277.66;;;-1.85;100.00
75942;BME280;64622;46.220;19.878;2022-12-29T05:42:39;101271.63;;;-1.87;100.00
75942;BME280;64622;46.220;19.878;2022-12-29T05:45:07;101282.91;;;-1.85;100.00
75942;BME280;64622;46.220;19.878;2022-12-29T05:47:34;101284.69;;;-1.85;100.00
75942;BME280;64622;46.220;19.878;2022-12-29T05:50:01;101275.19;;;-1.87;100.00
75942;BME280;64622;46.220;19.878;2022-12-29T05:52:28;101269.34;;;-1.96;100.00
75942;BME280;64622;46.220;19.878;2022-12-29T05:54:55;101283.34;;;-1.95;100.00
75942;BME280;64622;46.220;19.878;2022-12-29T05:57:22;101291.13;;;-1.94;100.00
75942;BME280;64622;46.220;19.878;2022-12-29T05:59:50;101285.81;;;-1.92;100.00
75942;BME280;64622;46.220;19.878;2022-12-29T06:02:17;101276.47;;;-1.99;100.00
75942;BME280;64622;46.220;19.878;2022-12-29T06:04:44;101271.37;;;-2.04;100.00
75942;BME280;64622;46.220;19.878;2022-12-29T06:07:11;101275.75;;;-2.03;100.00
75942;BME280;64622;46.220;19.878;2022-12-29T06:09:38;101291.63;;;-2.07;100.00
75942;BME280;64622;46.220;19.878;2022-12-29T06:12:06;101284.03;;;-2.15;100.00
75942;BME280;64622;46.220;19.878;2022-12-29T06:14:33;101283.22;;;-2.15;100.00
75942;BME280;64622;46.220;19.878;2022-12-29T06:17:00;101295.50;;;-2.17;100.00
75942;BME280;64622;46.220;19.878;2022-12-29T06:19:26;101300.59;;;-2.12;100.00
75942;BME280;64622;46.220;19.878;2022-12-29T06:21:53;101295.22;;;-2.10;100.00
75942;BME280;64622;46.220;19.878;2022-12-29T06:24:21;101298.75;;;-2.11;100.00
75942;BME280;64622;46.220;19.878;2022-12-29T06:26:48;101293.63;;;-2.14;100.00
75942;BME280;64622;46.220;19.878;2022-12-29T06:29:17;101288.38;;;-2.14;100.00
75942;BME280;64622;46.220;19.878;2022-12-29T06:31:44;101290.87;;;-2.11;100.00
75942;BME280;64622;46.220;19.878;2022-12-29T06:34:15;101272.75;;;-2.17;100.00
75942;BME280;64622;46.220;19.878;2022-12-29T06:36:41;101287.31;;;-2.08;100.00
75942;BME280;64622;46.220;19.878;2022-12-29T06:39:10;101285.69;;;-2.12;100.00
75942;BME280;64622;46.220;19.878;2022-12-29T06:41:37;101296.88;;;-2.07;100.00
75942;BME280;64622;46.220;19.878;2022-12-29T06:44:07;101293.25;;;-2.03;100.00
75942;BME280;64622;46.220;19.878;2022-12-29T06:46:35;101302.47;;;-1.93;100.00
75942;BME280;64622;46.220;19.878;2022-12-29T06:49:02;101298.84;;;-1.89;100.00
75942;BME280;64622;46.220;19.878;2022-12-29T06:51:28;101298.88;;;-1.91;100.00
75942;BME280;64622;46.220;19.878;2022-12-29T06:53:55;101309.78;;;-1.78;100.00
75942;BME280;64622;46.220;19.878;2022-12-29T06:56:21;101301.28;;;-1.85;100.00
75942;BME280;64622;46.220;19.878;2022-12-29T06:58:48;101300.06;;;-1.76;100.00
75942;BME280;64622;46.220;19.878;2022-12-29T07:01:15;101298.09;;;-1.70;100.00
75942;BME280;64622;46.220;19.878;2022-12-29T07:03:42;101293.22;;;-1.57;100.00
75942;BME280;64622;46.220;19.878;2022-12-29T07:06:09;101303.03;;;-1.39;100.00
75942;BME280;64622;46.220;19.878;2022-12-29T07:08:35;101291.31;;;-1.31;100.00
75942;BME280;64622;46.220;19.878;2022-12-29T07:11:02;101291.78;;;-1.21;100.00
75942;BME280;64622;46.220;19.878;2022-12-29T07:13:29;101304.44;;;-1.09;100.00
75942;BME280;64622;46.220;19.878;2022-12-29T07:15:55;101299.66;;;-1.00;100.00
75942;BME280;64622;46.220;19.878;2022-12-29T07:18:22;101286.22;;;-0.92;100.00
75942;BME280;64622;46.220;19.878;2022-12-29T07:20:49;101283.16;;;-0.82;100.00
75942;BME280;64622;46.220;19.878;2022-12-29T07:23:15;101299.94;;;-0.64;99.77
75942;BME280;64622;46.220;19.878;2022-12-29T07:25:42;101287.50;;;-0.61;99.37
75942;BME280;64622;46.220;19.878;2022-12-29T07:28:09;101285.81;;;-0.42;98.79
75942;BME280;64622;46.220;19.878;2022-12-29T07:30:36;101291.50;;;-0.32;98.27
75942;BME280;64622;46.220;19.878;2022-12-29T07:33:04;101304.37;;;-0.26;98.22
75942;BME280;64622;46.220;19.878;2022-12-29T07:35:31;101298.88;;;-0.20;97.86
75942;BME280;64622;46.220;19.878;2022-12-29T07:37:59;101294.06;;;-0.11;97.73
75942;BME280;64622;46.220;19.878;2022-12-29T07:40:26;101288.41;;;0.17;96.57
75942;BME280;64622;46.220;19.878;2022-12-29T07:42:52;101276.44;;;0.10;96.25
75942;BME280;64622;46.220;19.878;2022-12-29T07:45:26;101290.41;;;0.30;95.87
75942;BME280;64622;46.220;19.878;2022-12-29T07:47:53;101287.06;;;0.45;95.20
75942;BME280;64622;46.220;19.878;2022-12-29T07:50:19;101282.94;;;0.40;95.08
75942;BME280;64622;46.220;19.878;2022-12-29T07:52:46;101288.06;;;0.61;94.79
75942;BME280;64622;46.220;19.878;2022-12-29T07:55:15;101280.06;;;0.81;94.27
75942;BME280;64622;46.220;19.878;2022-12-29T07:57:42;101275.16;;;1.09;93.21
75942;BME280;64622;46.220;19.878;2022-12-29T08:00:10;101270.66;;;1.11;92.69
75942;BME280;64622;46.220;19.878;2022-12-29T08:02:39;101257.47;;;1.11;92.88
75942;BME280;64622;46.220;19.878;2022-12-29T08:05:06;101262.69;;;1.47;92.14
75942;BME280;64622;46.220;19.878;2022-12-29T08:07:32;101270.44;;;1.67;90.94
75942;BME280;64622;46.220;19.878;2022-12-29T08:09:59;101268.75;;;1.66;90.92
75942;BME280;64622;46.220;19.878;2022-12-29T08:12:26;101277.34;;;1.69;90.72
75942;BME280;64622;46.220;19.878;2022-12-29T08:14:52;101287.56;;;1.75;91.18
75942;BME280;64622;46.220;19.878;2022-12-29T08:17:19;101285.00;;;1.74;90.94
75942;BME280;64622;46.220;19.878;2022-12-29T08:19:46;101284.00;;;1.76;91.60
75942;BME280;64622;46.220;19.878;2022-12-29T08:22:15;101288.00;;;2.00;91.04
75942;BME280;64622;46.220;19.878;2022-12-29T08:24:42;101284.44;;;2.01;90.94
75942;BME280;64622;46.220;19.878;2022-12-29T08:27:09;101278.88;;;1.90;91.97
75942;BME280;64622;46.220;19.878;2022-12-29T08:29:35;101279.59;;;2.09;90.68
75942;BME280;64622;46.220;19.878;2022-12-29T08:32:02;101270.38;;;2.01;92.11
75942;BME280;64622;46.220;19.878;2022-12-29T08:34:31;101255.78;;;1.94;91.79
75942;BME280;64622;46.220;19.878;2022-12-29T08:36:57;101261.13;;;1.77;93.33
75942;BME280;64622;46.220;19.878;2022-12-29T08:39:24;101266.44;;;1.92;93.26
75942;BME280;64622;46.220;19.878;2022-12-29T08:41:51;101254.44;;;2.50;90.58
75942;BME280;64622;46.220;19.878;2022-12-29T08:44:18;101244.06;;;2.15;91.98
75942;BME280;64622;46.220;19.878;2022-12-29T08:46:44;101255.72;;;1.95;93.39
75942;BME280;64622;46.220;19.878;2022-12-29T08:49:11;101260.72;;;1.84;93.96
75942;BME280;64622;46.220;19.878;2022-12-29T08:51:38;101257.25;;;1.99;93.71
75942;BME280;64622;46.220;19.878;2022-12-29T08:54:05;101263.19;;;1.87;94.11
75942;BME280;64622;46.220;19.878;2022-12-29T08:56:32;101264.59;;;2.10;93.00
75942;BME280;64622;46.220;19.878;2022-12-29T08:58:59;101268.41;;;2.37;93.05
75942;BME280;64622;46.220;19.878;2022-12-29T09:01:28;101263.87;;;2.23;93.21
75942;BME280;64622;46.220;19.878;2022-12-29T09:03:56;101272.91;;;2.19;93.27
75942;BME280;64622;46.220;19.878;2022-12-29T09:06:23;101261.03;;;2.11;94.37
75942;BME280;64622;46.220;19.878;2022-12-29T09:08:49;101265.75;;;2.37;93.92
75942;BME280;64622;46.220;19.878;2022-12-29T09:11:19;101267.97;;;2.44;93.67
75942;BME280;64622;46.220;19.878;2022-12-29T09:13:47;101264.06;;;2.51;93.77
75942;BME280;64622;46.220;19.878;2022-12-29T09:16:15;101243.09;;;2.48;93.48
75942;BME280;64622;46.220;19.878;2022-12-29T09:18:43;101251.44;;;2.56;93.67
75942;BME280;64622;46.220;19.878;2022-12-29T09:21:10;101259.88;;;2.63;93.89
75942;BME280;64622;46.220;19.878;2022-12-29T09:23:38;101248.81;;;2.56;94.46
75942;BME280;64622;46.220;19.878;2022-12-29T09:26:04;101253.56;;;2.34;95.46
75942;BME280;64622;46.220;19.878;2022-12-29T09:28:31;101246.91;;;2.89;93.58
75942;BME280;64622;46.220;19.878;2022-12-29T09:30:58;101246.56;;;3.54;90.20
75942;BME280;64622;46.220;19.878;2022-12-29T09:33:25;101248.88;;;4.02;88.67
75942;BME280;64622;46.220;19.878;2022-12-29T09:35:54;101242.06;;;4.12;87.99
75942;BME280;64622;46.220;19.878;2022-12-29T09:38:22;101252.28;;;4.04;87.36
75942;BME280;64622;46.220;19.878;2022-12-29T09:40:55;101236.38;;;4.32;86.29
75942;BME280;64622;46.220;19.878;2022-12-29T09:43:43;101242.44;;;5.01;84.33
75942;BME280;64622;46.220;19.878;2022-12-29T09:46:28;101240.37;;;5.19;83.02
75942;BME280;64622;46.220;19.878;2022-12-29T09:49:19;101253.00;;;5.15;83.80
75942;BME280;64622;46.220;19.878;2022-12-29T09:51:52;101242.34;;;5.03;84.24
75942;BME280;64622;46.220;19.878;2022-12-29T09:57:13;101245.94;;;4.75;85.61
75942;BME280;64622;46.220;19.878;2022-12-29T09:59:43;101232.28;;;5.08;85.25
75942;BME280;64622;46.220;19.878;2022-12-29T10:02:31;101231.84;;;5.53;83.54
75942;BME280;64622;46.220;19.878;2022-12-29T10:04:59;101222.84;;;5.68;83.06
75942;BME280;64622;46.220;19.878;2022-12-29T10:07:54;101228.00;;;5.57;83.69
75942;BME280;64622;46.220;19.878;2022-12-29T10:13:22;101214.13;;;5.91;82.74
75942;BME280;64622;46.220;19.878;2022-12-29T10:16:09;101213.19;;;5.92;82.66
75942;BME280;64622;46.220;19.878;2022-12-29T10:24:07;101210.34;;;6.43;81.34
75942;BME280;64622;46.220;19.878;2022-12-29T10:26:40;101200.59;;;6.91;80.41
75942;BME280;64622;46.220;19.878;2022-12-29T10:31:58;101202.78;;;6.97;79.22
75942;BME280;64622;46.220;19.878;2022-12-29T10:34:37;101196.63;;;6.37;82.77
75942;BME280;64622;46.220;19.878;2022-12-29T10:39:47;101206.13;;;6.28;84.00
75942;BME280;64622;46.220;19.878;2022-12-29T10:44:45;101193.37;;;6.57;83.82
75942;BME280;64622;46.220;19.878;2022-12-29T10:49:24;101171.78;;;7.54;80.37
75942;BME280;64622;46.220;19.878;2022-12-29T10:51:56;101171.78;;;7.54;80.37
75942;BME280;64622;46.220;19.878;2022-12-29T10:54:33;101176.41;;;6.94;83.11
75942;BME280;64622;46.220;19.878;2022-12-29T10:57:13;101165.44;;;6.75;83.26
75942;BME280;64622;46.220;19.878;2022-12-29T10:59:42;101168.25;;;6.84;83.86
75942;BME280;64622;46.220;19.878;2022-12-29T11:07:40;101158.72;;;8.06;79.52
75942;BME280;64622;46.220;19.878;2022-12-29T11:10:21;101153.25;;;7.74;80.21
75942;BME280;64622;46.220;19.878;2022-12-29T11:13:25;101149.47;;;7.09;82.85
75942;BME280;64622;46.220;19.878;2022-12-29T11:15:52;101152.94;;;7.22;83.12
75942;BME280;64622;46.220;19.878;2022-12-29T11:18:27;101160.97;;;6.99;83.85
75942;BME280;64622;46.220;19.878;2022-12-29T11:21:00;101131.41;;;6.91;84.55
75942;BME280;64622;46.220;19.878;2022-12-29T11:26:22;101130.69;;;6.89;85.54
75942;BME280;64622;46.220;19.878;2022-12-29T11:31:45;101118.78;;;6.82;86.39
75942;BME280;64622;46.220;19.878;2022-12-29T11:34:30;101109.72;;;6.84;86.67
75942;BME280;64622;46.220;19.878;2022-12-29T11:37:18;101115.53;;;6.89;86.83
75942;BME280;64622;46.220;19.878;2022-12-29T11:40:02;101126.38;;;6.99;86.69
75942;BME280;64622;46.220;19.878;2022-12-29T11:45:05;101140.81;;;7.18;87.17
75942;BME280;64622;46.220;19.878;2022-12-29T11:47:33;101121.19;;;7.19;87.32
75942;BME280;64622;46.220;19.878;2022-12-29T11:50:03;101111.44;;;7.31;87.37
75942;BME280;64622;46.220;19.878;2022-12-29T11:52:36;101107.94;;;7.42;87.03
75942;BME280;64622;46.220;19.878;2022-12-29T11:55:20;101111.09;;;7.47;86.80
75942;BME280;64622;46.220;19.878;2022-12-29T11:57:50;101107.47;;;7.58;86.68
75942;BME280;64622;46.220;19.878;2022-12-29T12:00:22;101109.78;;;7.63;86.39
75942;BME280;64622;46.220;19.878;2022-12-29T12:05:33;101105.06;;;7.67;86.78
75942;BME280;64622;46.220;19.878;2022-12-29T12:08:05;101092.47;;;7.57;87.08
75942;BME280;64622;46.220;19.878;2022-12-29T12:10:40;101087.63;;;7.62;87.45
75942;BME280;64622;46.220;19.878;2022-12-29T12:13:20;101086.75;;;7.62;87.72
75942;BME280;64622;46.220;19.878;2022-12-29T12:16:19;101075.75;;;7.56;87.87
75942;BME280;64622;46.220;19.878;2022-12-29T12:18:52;101079.03;;;7.59;88.04
75942;BME280;64622;46.220;19.878;2022-12-29T12:21:39;101080.13;;;7.57;88.29
75942;BME280;64622;46.220;19.878;2022-12-29T12:27:26;101084.56;;;7.56;88.98
75942;BME280;64622;46.220;19.878;2022-12-29T12:30:02;101084.56;;;7.56;89.22
75942;BME280;64622;46.220;19.878;2022-12-29T12:35:15;101071.25;;;7.56;89.80
75942;BME280;64622;46.220;19.878;2022-12-29T12:43:39;101053.22;;;7.59;90.40
75942;BME280;64622;46.220;19.878;2022-12-29T12:46:27;101044.38;;;7.70;90.11
75942;BME280;64622;46.220;19.878;2022-12-29T13:08:33;101042.12;;;8.08;90.50
75942;BME280;64622;46.220;19.878;2022-12-29T13:19:28;101041.75;;;8.13;91.37
75942;BME280;64622;46.220;19.878;2022-12-29T13:24:49;101053.53;;;8.10;91.65
75942;BME280;64622;46.220;19.878;2022-12-29T13:30:15;101056.66;;;8.15;91.88
75942;BME280;64622;46.220;19.878;2022-12-29T13:33:27;101054.13;;;8.13;92.08
75942;BME280;64622;46.220;19.878;2022-12-29T13:36:04;101052.66;;;8.21;91.93
75942;BME280;64622;46.220;19.878;2022-12-29T13:41:14;101044.16;;;8.15;92.17
75942;BME280;64622;46.220;19.878;2022-12-29T13:43:46;101044.66;;;8.21;92.26
75942;BME280;64622;46.220;19.878;2022-12-29T13:46:37;101042.94;;;8.19;92.46
75942;BME280;64622;46.220;19.878;2022-12-29T13:49:11;101045.53;;;8.21;92.50
75942;BME280;64622;46.220;19.878;2022-12-29T13:51:48;101046.22;;;8.23;92.51
75942;BME280;64622;46.220;19.878;2022-12-29T13:54:47;101046.38;;;8.22;92.57
75942;BME280;64622;46.220;19.878;2022-12-29T13:57:41;101053.28;;;8.24;92.67
75942;BME280;64622;46.220;19.878;2022-12-29T14:00:16;101053.28;;;8.24;92.78
75942;BME280;64622;46.220;19.878;2022-12-29T14:07:57;101054.00;;;8.26;93.25
75942;BME280;64622;46.220;19.878;2022-12-29T14:10:35;101048.19;;;8.21;93.46
75942;BME280;64622;46.220;19.878;2022-12-29T14:15:32;101047.81;;;8.26;93.59
75942;BME280;64622;46.220;19.878;2022-12-29T14:18:13;101034.34;;;8.27;93.64
75942;BME280;64622;46.220;19.878;2022-12-29T14:23:40;101044.91;;;8.60;92.78
75942;BME280;64622;46.220;19.878;2022-12-29T14:26:14;101035.78;;;8.63;92.64
75942;BME280;64622;46.220;19.878;2022-12-29T14:28:44;101043.91;;;8.61;93.01
75942;BME280;64622;46.220;19.878;2022-12-29T14:36:36;101047.81;;;8.57;93.94
75942;BME280;64622;46.220;19.878;2022-12-29T14:39:05;101044.69;;;8.52;94.26
75942;BME280;64622;46.220;19.878;2022-12-29T14:42:04;101056.91;;;8.55;94.51
75942;BME280;64622;46.220;19.878;2022-12-29T14:44:32;101044.56;;;8.54;94.75
75942;BME280;64622;46.220;19.878;2022-12-29T14:47:04;101049.03;;;8.53;94.92
75942;BME280;64622;46.220;19.878;2022-12-29T14:49:42;101044.56;;;8.54;94.93
75942;BME280;64622;46.220;19.878;2022-12-29T14:52:17;101043.22;;;8.48;95.17
75942;BME280;64622;46.220;19.878;2022-12-29T14:54:47;101047.28;;;8.43;95.39
75942;BME280;64622;46.220;19.878;2022-12-29T15:00:07;101043.28;;;8.37;95.93
75942;BME280;64622;46.220;19.878;2022-12-29T15:02:39;101040.16;;;8.32;96.20
75942;BME280;64622;46.220;19.878;2022-12-29T15:05:27;101043.56;;;8.34;96.52
75942;BME280;64622;46.220;19.878;2022-12-29T15:07:57;101029.28;;;8.24;96.59
75942;BME280;64622;46.220;19.878;2022-12-29T15:10:26;101040.25;;;8.42;96.29
75942;BME280;64622;46.220;19.878;2022-12-29T15:13:05;101028.25;;;8.36;96.32
75942;BME280;64622;46.220;19.878;2022-12-29T15:15:37;101020.97;;;8.38;96.49
75942;BME280;64622;46.220;19.878;2022-12-29T15:18:33;101031.41;;;8.41;96.37
75942;BME280;64622;46.220;19.878;2022-12-29T15:21:03;101037.81;;;8.39;96.41
75942;BME280;64622;46.220;19.878;2022-12-29T15:23:32;101031.28;;;8.43;96.30
75942;BME280;64622;46.220;19.878;2022-12-29T15:26:04;101023.63;;;8.49;95.58
75942;BME280;64622;46.220;19.878;2022-12-29T15:28:44;101036.78;;;8.51;95.79
75942;BME280;64622;46.220;19.878;2022-12-29T15:31:19;101027.97;;;8.50;95.40